Hauptseite
METAR-TAF:

METAR-TAF

Flughäfen :

Arnheim, Niederlande

Militärflugplatz Deelen

Breite: 52-04N, Länge: 005-53E, Höhe: 48 m

Beobachtung

Neuester Wetterbericht von vor 19 Minuten, um 08:25 UTC
Wind 2 kt aus unterschiedlichen Richtungen
Temperatur 12°C
Luftfeuchtigkeit 100%
Luftdruck 1023 hPa
Sichtweite: 1100 m
Geschlossene Wolkendecke in der Höhe von 100 ft
feuchter Dunst

METAR: EHDL 240825Z AUTO VRB02KT 1100 R20/1500U BR OVC001 12/12 Q1023 RED

Zeit: 10:44 (08:44 UTC)


TAF: fehlend

Wetterbeobachtungen und Prognosen von mehr als 4000 Flughäfen (METAR und TAF Bericht).

Die verfügbaren Stationen werden durch gelbe und rote Markierungen auf der Karte dargestellt.

Führen Sie die Maus auf sie, um den Namen der Station zu sehen.

Darauf klicken, um die Beobachtung von Wetterbeobachtungen und Prognosen zu sehen.

Um die Karte zu ändern : klicken Sie auf den grünen Tasten mit einem schwarzen Kreuz Zum Vergrößern, auf den grünen Button mit einem Gedankenstrich zu verkleinern, oder auf die grünen Pfeile für benachbarte Karten.


METAR-TAF: